createdAt,value
2023-03-01T00:01:41.700Z,9.05
2023-03-01T00:04:08.792Z,8.20
2023-03-01T00:06:38.957Z,9.25
2023-03-01T00:09:08.809Z,9.25
2023-03-01T00:11:38.274Z,8.35
2023-03-01T00:14:08.493Z,8.43
2023-03-01T00:16:40.422Z,7.95
2023-03-01T00:19:13.617Z,7.90
2023-03-01T00:21:41.207Z,7.00
2023-03-01T00:24:09.212Z,7.25
2023-03-01T00:26:36.431Z,7.00
2023-03-01T00:29:05.872Z,7.45
2023-03-01T00:31:34.425Z,7.00
2023-03-01T00:34:05.745Z,8.13
2023-03-01T00:36:39.355Z,7.40
2023-03-01T00:39:12.965Z,7.22
2023-03-01T00:41:42.849Z,7.53
2023-03-01T00:44:13.041Z,7.30
2023-03-01T00:46:40.193Z,6.90
2023-03-01T00:49:09.353Z,7.35
2023-03-01T00:51:40.338Z,7.22
2023-03-01T00:54:09.727Z,6.65
2023-03-01T00:56:36.662Z,6.93
2023-03-01T00:59:05.709Z,7.97
2023-03-01T01:01:32.960Z,7.32
2023-03-01T01:04:02.909Z,6.97
2023-03-01T01:06:34.167Z,8.18
2023-03-01T01:09:03.988Z,8.10
2023-03-01T01:11:31.654Z,7.32
2023-03-01T01:13:59.066Z,7.53
2023-03-01T01:16:29.216Z,8.60
2023-03-01T01:18:57.593Z,8.13
2023-03-01T01:21:26.247Z,7.68
2023-03-01T01:23:54.069Z,7.78
2023-03-01T01:26:27.656Z,7.95
2023-03-01T01:28:55.209Z,7.55
2023-03-01T01:31:27.925Z,7.95
2023-03-01T01:33:59.250Z,8.45
2023-03-01T01:36:29.988Z,8.25
2023-03-01T01:38:57.987Z,8.93
2023-03-01T01:41:28.026Z,8.52
2023-03-01T01:44:25.026Z,8.27
2023-03-01T01:47:03.031Z,8.77
2023-03-01T01:49:39.487Z,8.43
2023-03-01T01:52:37.375Z,8.93
2023-03-01T01:55:13.119Z,8.50
2023-03-01T01:57:45.732Z,8.07
2023-03-01T02:00:23.649Z,8.13
2023-03-01T02:02:59.011Z,8.13
2023-03-01T02:05:55.653Z,8.95
2023-03-01T02:08:28.425Z,8.73
2023-03-01T02:11:00.747Z,8.60
2023-03-01T02:13:30.880Z,8.32
2023-03-01T02:15:57.954Z,8.80
2023-03-01T02:18:25.919Z,10.13
2023-03-01T02:21:35.777Z,8.45
2023-03-01T02:24:21.491Z,8.55
2023-03-01T02:26:53.723Z,8.93
2023-03-01T02:29:23.296Z,8.30
2023-03-01T02:31:52.501Z,9.45
2023-03-01T02:34:23.168Z,8.55
2023-03-01T02:37:08.550Z,8.90
2023-03-01T02:39:45.817Z,8.63
2023-03-01T02:42:18.139Z,9.40
2023-03-01T02:44:45.595Z,8.63
2023-03-01T02:47:15.683Z,8.98
2023-03-01T02:49:42.597Z,8.75
2023-03-01T02:52:29.735Z,9.40
2023-03-01T02:54:59.963Z,8.73
2023-03-01T02:57:32.618Z,8.38
2023-03-01T03:00:09.163Z,8.68
2023-03-01T03:02:37.909Z,8.75
2023-03-01T03:05:12.151Z,8.65
2023-03-01T03:07:42.958Z,9.50
2023-03-01T03:10:16.834Z,8.75
2023-03-01T03:12:43.776Z,8.35
2023-03-01T03:15:13.665Z,9.13
2023-03-01T03:17:44.121Z,8.75
2023-03-01T03:20:20.055Z,8.80
2023-03-01T03:22:50.927Z,9.20
2023-03-01T03:25:19.295Z,8.47
2023-03-01T03:27:49.210Z,8.95
2023-03-01T03:30:20.585Z,10.00
2023-03-01T03:32:53.383Z,9.60
2023-03-01T03:35:40.390Z,9.65
2023-03-01T03:38:16.519Z,8.68
2023-03-01T03:41:04.391Z,9.27
2023-03-01T03:43:39.397Z,8.43
2023-03-01T03:46:11.927Z,9.75
2023-03-01T03:48:45.140Z,9.38
2023-03-01T03:51:16.972Z,9.02
2023-03-01T03:53:46.532Z,9.00
2023-03-01T03:56:18.998Z,9.55
2023-03-01T03:58:48.161Z,10.15
2023-03-01T04:01:15.048Z,10.35
2023-03-01T04:03:42.779Z,9.52
2023-03-01T04:06:09.690Z,9.95
2023-03-01T04:08:36.662Z,9.63
2023-03-01T04:11:24.485Z,10.38
2023-03-01T04:13:57.975Z,8.98
2023-03-01T04:16:25.907Z,9.85
2023-03-01T04:18:55.613Z,9.73
2023-03-01T04:21:25.778Z,9.70
2023-03-01T04:23:57.691Z,9.82
2023-03-01T04:26:24.576Z,10.18
2023-03-01T04:28:51.626Z,9.43
2023-03-01T04:31:22.174Z,10.75
2023-03-01T04:33:57.014Z,9.40
2023-03-01T04:36:30.684Z,10.43
2023-03-01T04:39:00.498Z,10.48
2023-03-01T04:41:32.293Z,10.73
2023-03-01T04:44:01.066Z,9.63
2023-03-01T04:46:28.118Z,10.00
2023-03-01T04:48:59.854Z,10.43
2023-03-01T04:51:26.754Z,9.43
2023-03-01T04:53:53.580Z,9.88
2023-03-01T04:56:20.531Z,10.50
2023-03-01T04:58:47.987Z,10.38
2023-03-01T05:01:20.763Z,10.35
2023-03-01T05:03:55.588Z,10.45
2023-03-01T05:06:22.697Z,10.48
2023-03-01T05:08:49.647Z,9.90
2023-03-01T05:11:16.543Z,9.27
2023-03-01T05:13:43.709Z,9.68
2023-03-01T05:16:12.696Z,10.20
2023-03-01T05:18:40.948Z,10.02
2023-03-01T05:21:12.158Z,9.98
2023-03-01T05:23:39.778Z,9.35
2023-03-01T05:26:13.497Z,9.80
2023-03-01T05:28:43.249Z,11.85
2023-03-01T05:31:12.789Z,10.15
2023-03-01T05:33:44.959Z,9.48
2023-03-01T05:36:11.905Z,9.70
2023-03-01T05:38:38.865Z,9.70
2023-03-01T05:41:08.247Z,9.93
2023-03-01T05:43:35.168Z,9.32
2023-03-01T05:46:04.585Z,10.10
2023-03-01T05:48:33.672Z,9.35
2023-03-01T05:51:01.717Z,9.52
2023-03-01T05:53:28.745Z,9.23
2023-03-01T05:55:56.014Z,10.13
2023-03-01T05:58:22.877Z,9.75
2023-03-01T06:00:50.219Z,8.95
2023-03-01T06:03:18.842Z,10.60
2023-03-01T06:05:46.214Z,9.05
2023-03-01T06:08:16.198Z,9.18
2023-03-01T06:10:45.144Z,10.02
2023-03-01T06:13:12.018Z,9.68
2023-03-01T06:15:38.940Z,8.90
2023-03-01T06:18:05.843Z,9.35
2023-03-01T06:20:32.760Z,10.10
2023-03-01T06:23:00.990Z,9.35
2023-03-01T06:25:28.803Z,9.27
2023-03-01T06:27:57.800Z,9.90
2023-03-01T06:30:26.448Z,9.45
2023-03-01T06:32:53.998Z,8.98
2023-03-01T06:35:23.357Z,8.88
2023-03-01T06:37:50.271Z,8.35
2023-03-01T06:40:22.556Z,9.10
2023-03-01T06:42:51.514Z,9.00
2023-03-01T06:45:20.602Z,9.10
2023-03-01T06:47:48.213Z,9.55
2023-03-01T06:50:17.665Z,9.52
2023-03-01T06:55:14.912Z,9.98
2023-03-01T06:57:48.924Z,9.68
2023-03-01T07:00:16.595Z,8.73
2023-03-01T07:02:43.525Z,9.75
2023-03-01T07:05:12.462Z,9.40
2023-03-01T07:07:39.339Z,9.35
2023-03-01T07:10:09.994Z,8.77
2023-03-01T07:12:39.174Z,9.33
2023-03-01T07:15:10.857Z,8.93
2023-03-01T07:17:39.927Z,8.63
2023-03-01T07:20:12.701Z,8.63
2023-03-01T07:22:43.023Z,8.77
2023-03-01T07:25:11.327Z,9.32
2023-03-01T07:27:38.450Z,9.13
2023-03-01T07:30:06.325Z,8.73
2023-03-01T07:32:35.744Z,8.88
2023-03-01T07:35:05.446Z,8.43
2023-03-01T07:37:34.796Z,8.88
2023-03-01T07:40:01.638Z,9.15
2023-03-01T07:42:28.493Z,9.02
2023-03-01T07:44:55.346Z,9.25
2023-03-01T07:47:22.162Z,9.98
2023-03-01T07:49:48.996Z,9.38
2023-03-01T07:52:20.425Z,9.68
2023-03-01T07:54:47.232Z,8.88
2023-03-01T07:57:14.187Z,9.30
2023-03-01T07:59:43.178Z,9.02
2023-03-01T08:02:12.020Z,8.70
2023-03-01T08:04:39.008Z,9.20
2023-03-01T08:07:06.831Z,10.25
2023-03-01T08:09:38.660Z,9.13
2023-03-01T08:12:08.365Z,8.93
2023-03-01T08:14:35.397Z,8.73
2023-03-01T08:17:03.974Z,9.43
2023-03-01T08:19:31.238Z,9.32
2023-03-01T08:21:59.197Z,9.77
2023-03-01T08:24:26.381Z,8.93
2023-03-01T08:26:53.497Z,9.15
2023-03-01T08:29:23.124Z,9.57
2023-03-01T08:31:52.864Z,8.63
2023-03-01T08:34:20.128Z,8.43
2023-03-01T08:36:47.627Z,8.50
2023-03-01T08:39:21.042Z,8.93
2023-03-01T08:41:48.596Z,8.85
2023-03-01T08:44:20.559Z,9.63
2023-03-01T08:46:51.115Z,8.77
2023-03-01T08:49:20.321Z,9.30
2023-03-01T08:51:52.888Z,9.52
2023-03-01T08:54:22.590Z,9.57
2023-03-01T08:56:50.040Z,9.32
2023-03-01T08:59:18.381Z,8.75
2023-03-01T09:01:47.495Z,9.57
2023-03-01T09:04:18.307Z,9.60
2023-03-01T09:06:45.250Z,8.77
2023-03-01T09:09:18.574Z,8.73
2023-03-01T09:11:51.063Z,8.98
2023-03-01T09:14:18.031Z,7.75
2023-03-01T09:16:45.981Z,8.45
2023-03-01T09:19:18.192Z,9.70
2023-03-01T09:21:52.976Z,10.32
2023-03-01T09:24:26.052Z,9.13
2023-03-01T09:26:59.851Z,9.57
2023-03-01T09:29:29.358Z,7.85
2023-03-01T09:31:59.345Z,8.60
2023-03-01T09:34:26.440Z,8.48
2023-03-01T09:36:53.512Z,8.18
2023-03-01T09:39:23.075Z,9.65
2023-03-01T09:42:02.944Z,8.82
2023-03-01T09:44:53.004Z,8.95
2023-03-01T09:47:30.547Z,8.48
2023-03-01T09:50:17.892Z,8.45
2023-03-01T09:52:54.482Z,8.25
2023-03-01T09:55:36.226Z,9.25
2023-03-01T10:00:50.957Z,7.00
2023-03-01T10:03:29.240Z,8.48
2023-03-01T10:06:34.333Z,8.50
2023-03-01T10:09:17.288Z,7.85
2023-03-01T10:11:52.483Z,8.05
2023-03-01T10:15:11.622Z,9.00
2023-03-01T10:17:59.182Z,7.60
2023-03-01T10:20:48.552Z,8.65
2023-03-01T10:23:15.422Z,9.82
2023-03-01T10:26:35.207Z,9.25
2023-03-01T10:29:11.740Z,9.13
2023-03-01T10:31:46.392Z,10.07
2023-03-01T10:34:21.860Z,8.73
2023-03-01T10:37:26.988Z,9.93
2023-03-01T10:40:09.707Z,9.23
2023-03-01T10:42:48.076Z,8.48
2023-03-01T10:45:30.073Z,9.50
2023-03-01T10:48:19.139Z,9.60
2023-03-01T10:51:06.337Z,9.02
2023-03-01T10:53:52.027Z,9.40
2023-03-01T10:56:18.945Z,8.75
2023-03-01T10:59:05.543Z,9.07
2023-03-01T11:01:36.365Z,8.90
2023-03-01T11:04:08.463Z,9.15
2023-03-01T11:06:38.038Z,9.70
2023-03-01T11:09:20.460Z,8.40
2023-03-01T11:11:50.157Z,9.80
2023-03-01T11:14:27.271Z,9.15
2023-03-01T11:17:26.793Z,9.82
2023-03-01T11:20:15.601Z,9.25
2023-03-01T11:22:56.756Z,8.95
2023-03-01T11:25:29.074Z,9.20
2023-03-01T11:27:59.546Z,9.55
2023-03-01T11:30:40.078Z,9.95
2023-03-01T11:33:34.371Z,9.43
2023-03-01T11:36:33.663Z,8.95
2023-03-01T11:39:34.316Z,8.45
2023-03-01T11:42:22.503Z,8.68
2023-03-01T11:44:56.698Z,9.52
2023-03-01T11:47:23.698Z,9.38
2023-03-01T11:50:18.237Z,9.63
2023-03-01T11:53:39.287Z,9.95
2023-03-01T11:56:08.725Z,9.77
2023-03-01T11:58:56.351Z,10.60
2023-03-01T12:02:11.095Z,10.35
2023-03-01T12:05:15.864Z,9.68
2023-03-01T12:08:07.332Z,9.00
2023-03-01T12:11:02.907Z,10.25
2023-03-01T12:13:56.922Z,10.75
2023-03-01T12:16:57.190Z,9.77
2023-03-01T12:20:01.345Z,10.95
2023-03-01T12:22:44.669Z,10.48
2023-03-01T12:25:55.676Z,11.68
2023-03-01T12:29:02.725Z,10.48
2023-03-01T12:31:45.439Z,10.40
2023-03-01T12:34:50.652Z,11.45
2023-03-01T12:37:32.751Z,10.90
2023-03-01T12:40:24.447Z,10.40
2023-03-01T12:43:06.270Z,9.90
2023-03-01T12:48:49.284Z,9.70
2023-03-01T12:51:23.741Z,9.05
2023-03-01T12:53:57.040Z,10.32
2023-03-01T12:56:30.808Z,10.60
2023-03-01T12:59:21.353Z,12.05
2023-03-01T13:02:03.407Z,10.00
2023-03-01T13:04:37.974Z,10.88
2023-03-01T13:07:31.221Z,10.32
2023-03-01T13:10:15.466Z,10.32
2023-03-01T13:12:57.378Z,11.10
2023-03-01T13:15:24.271Z,12.07
2023-03-01T13:17:56.887Z,11.45
2023-03-01T13:20:33.173Z,11.30
2023-03-01T13:23:23.037Z,9.88
2023-03-01T13:26:17.712Z,10.95
2023-03-01T13:28:53.905Z,10.82
2023-03-01T13:31:20.757Z,10.23
2023-03-01T13:33:57.624Z,11.23
2023-03-01T13:36:31.668Z,11.23
2023-03-01T13:39:08.665Z,10.50
2023-03-01T13:41:46.742Z,11.23
2023-03-01T13:44:39.818Z,10.43
2023-03-01T13:47:14.845Z,10.95
2023-03-01T13:50:00.630Z,12.07
2023-03-01T13:52:42.592Z,10.95
2023-03-01T13:55:20.157Z,9.93
2023-03-01T13:57:58.392Z,10.70
2023-03-01T14:00:45.902Z,11.60
2023-03-01T14:03:22.651Z,10.60
2023-03-01T14:06:15.303Z,10.85
2023-03-01T14:08:46.018Z,10.30
2023-03-01T14:11:50.341Z,11.25
2023-03-01T14:14:41.399Z,10.77
2023-03-01T14:17:28.179Z,9.63
2023-03-01T14:20:29.369Z,10.00
2023-03-01T14:23:03.910Z,10.07
2023-03-01T14:25:34.777Z,11.00
2023-03-01T14:28:18.696Z,11.23
2023-03-01T14:30:49.638Z,11.18
2023-03-01T14:33:38.134Z,10.65
2023-03-01T14:36:10.360Z,10.20
2023-03-01T14:38:40.496Z,10.70
2023-03-01T14:41:20.456Z,10.85
2023-03-01T14:43:51.675Z,10.85
2023-03-01T14:46:30.596Z,11.30
2023-03-01T14:49:05.985Z,10.50
2023-03-01T14:51:41.464Z,11.70
2023-03-01T14:54:44.770Z,11.27
2023-03-01T14:57:27.607Z,11.00
2023-03-01T15:00:06.256Z,10.85
2023-03-01T15:02:36.584Z,11.45
2023-03-01T15:05:08.425Z,10.65
2023-03-01T15:07:41.073Z,11.05
2023-03-01T15:10:17.943Z,10.40
2023-03-01T15:12:44.834Z,11.98
2023-03-01T15:15:29.442Z,11.50
2023-03-01T15:18:00.392Z,11.77
2023-03-01T15:20:30.232Z,11.02
2023-03-01T15:22:58.122Z,10.80
2023-03-01T15:25:29.087Z,11.20
2023-03-01T15:28:00.500Z,11.40
2023-03-01T15:30:38.665Z,10.82
2023-03-01T15:33:32.239Z,10.50
2023-03-01T15:36:02.057Z,10.88
2023-03-01T15:38:35.083Z,11.52
2023-03-01T15:41:27.589Z,11.70
2023-03-01T15:43:56.658Z,11.13
2023-03-01T15:46:39.966Z,11.38
2023-03-01T15:49:54.492Z,11.95
2023-03-01T15:52:40.364Z,10.48
2023-03-01T15:55:17.634Z,11.52
2023-03-01T15:57:47.675Z,12.07
2023-03-01T16:00:20.986Z,11.85
2023-03-01T16:02:50.141Z,11.57
2023-03-01T16:05:29.196Z,12.13
2023-03-01T16:07:58.466Z,12.13
2023-03-01T16:10:25.929Z,11.63
2023-03-01T16:12:53.432Z,12.20
2023-03-01T16:15:27.315Z,12.52
2023-03-01T16:17:54.706Z,11.65
2023-03-01T16:20:30.013Z,11.60
2023-03-01T16:23:08.389Z,12.30
2023-03-01T16:25:40.532Z,13.05
2023-03-01T16:28:11.140Z,13.07
2023-03-01T16:30:42.080Z,12.40
2023-03-01T16:33:24.383Z,12.40
2023-03-01T16:35:56.532Z,12.07
2023-03-01T16:38:23.501Z,11.85
2023-03-01T16:40:52.833Z,11.82
2023-03-01T16:43:20.213Z,13.05
2023-03-01T16:45:47.549Z,11.75
2023-03-01T16:48:15.079Z,11.52
2023-03-01T16:50:42.364Z,12.30
2023-03-01T16:53:09.772Z,16.20
2023-03-01T16:55:36.856Z,15.63
2023-03-01T16:58:08.767Z,15.02
2023-03-01T17:00:37.136Z,14.18
2023-03-01T17:03:04.286Z,13.75
2023-03-01T17:05:33.763Z,13.00
2023-03-01T17:08:02.799Z,13.52
2023-03-01T17:10:34.280Z,13.77
2023-03-01T17:13:03.535Z,13.82
2023-03-01T17:15:30.581Z,14.80
2023-03-01T17:17:57.583Z,14.90
2023-03-01T17:20:24.664Z,16.13
2023-03-01T17:22:53.690Z,15.80
2023-03-01T17:25:20.729Z,16.55
2023-03-01T17:27:50.689Z,17.20
2023-03-01T17:30:18.442Z,16.38
2023-03-01T17:32:47.756Z,16.83
2023-03-01T17:35:14.846Z,15.95
2023-03-01T17:37:46.416Z,15.40
2023-03-01T17:40:14.000Z,14.88
2023-03-01T17:42:40.993Z,16.80
2023-03-01T17:45:11.478Z,14.85
2023-03-01T17:47:38.410Z,14.88
2023-03-01T17:50:06.534Z,14.95
2023-03-01T17:52:35.760Z,14.18
2023-03-01T17:55:02.786Z,14.00
2023-03-01T17:57:29.718Z,13.93
2023-03-01T17:59:56.655Z,14.70
2023-03-01T18:02:26.618Z,12.85
2023-03-01T18:04:58.424Z,13.80
2023-03-01T18:07:28.795Z,12.68
2023-03-01T18:09:56.566Z,13.60
2023-03-01T18:12:23.651Z,13.70
2023-03-01T18:14:55.972Z,14.73
2023-03-01T18:17:26.794Z,13.50
2023-03-01T18:19:56.233Z,13.48
2023-03-01T18:22:25.755Z,13.88
2023-03-01T18:24:52.715Z,14.85
2023-03-01T18:27:19.752Z,15.02
2023-03-01T18:29:48.981Z,14.57
2023-03-01T18:32:18.445Z,14.55
2023-03-01T18:34:45.620Z,15.68
2023-03-01T18:37:14.861Z,15.75
2023-03-01T18:39:42.006Z,14.52
2023-03-01T18:42:09.152Z,14.40
2023-03-01T18:44:39.104Z,14.45
2023-03-01T18:47:06.069Z,15.07
2023-03-01T18:49:33.088Z,18.15
2023-03-01T18:51:59.980Z,18.33
2023-03-01T18:54:26.875Z,15.68
2023-03-01T18:56:56.848Z,15.90
2023-03-01T18:59:26.760Z,14.88
2023-03-01T19:01:56.787Z,14.93
2023-03-01T19:04:27.223Z,15.48
2023-03-01T19:06:57.864Z,16.85
2023-03-01T19:09:28.213Z,17.47
2023-03-01T19:12:00.877Z,17.98
2023-03-01T19:14:33.324Z,16.13
2023-03-01T19:17:02.684Z,15.65
2023-03-01T19:19:36.263Z,14.90
2023-03-01T19:22:06.060Z,15.55
2023-03-01T19:24:37.568Z,15.60
2023-03-01T19:27:06.686Z,15.38
2023-03-01T19:29:35.647Z,15.80
2023-03-01T19:32:03.850Z,15.55
2023-03-01T19:34:31.344Z,15.60
2023-03-01T19:37:00.297Z,16.08
2023-03-01T19:39:27.629Z,18.05
2023-03-01T19:41:55.150Z,17.85
2023-03-01T19:44:27.147Z,18.98
2023-03-01T19:46:58.080Z,18.88
2023-03-01T19:49:29.057Z,19.25
2023-03-01T19:51:56.015Z,18.48
2023-03-01T19:54:25.270Z,19.15
2023-03-01T19:56:55.830Z,17.10
2023-03-01T19:59:24.976Z,17.60
2023-03-01T20:01:56.017Z,18.33
2023-03-01T20:04:25.285Z,17.50
2023-03-01T20:06:52.516Z,16.10
2023-03-01T20:09:26.261Z,20.52
2023-03-01T20:11:53.258Z,20.90
2023-03-01T20:14:23.545Z,20.40
2023-03-01T20:16:53.240Z,19.00
2023-03-01T20:19:21.130Z,17.70
2023-03-01T20:21:50.621Z,16.80
2023-03-01T20:24:17.545Z,17.13
2023-03-01T20:26:46.725Z,17.05
2023-03-01T20:29:13.723Z,17.42
2023-03-01T20:31:42.452Z,16.13
2023-03-01T20:34:12.092Z,17.08
2023-03-01T20:36:42.767Z,18.10
2023-03-01T20:39:11.878Z,17.67
2023-03-01T20:41:39.519Z,18.75
2023-03-01T20:44:09.541Z,19.67
2023-03-01T20:46:37.886Z,19.23
2023-03-01T20:49:06.066Z,19.65
2023-03-01T20:51:35.340Z,19.70
2023-03-01T20:54:02.456Z,17.77
2023-03-01T20:56:29.460Z,17.83
2023-03-01T20:58:58.662Z,15.45
2023-03-01T21:01:27.833Z,14.80
2023-03-01T21:03:55.153Z,15.88
2023-03-01T21:06:24.519Z,14.50
2023-03-01T21:08:58.324Z,15.88
2023-03-01T21:11:27.548Z,15.30
2023-03-01T21:13:57.869Z,15.25
2023-03-01T21:16:27.608Z,15.23
2023-03-01T21:19:01.655Z,15.93
2023-03-01T21:21:28.951Z,15.00
2023-03-01T21:23:56.037Z,15.15
2023-03-01T21:26:27.749Z,13.68
2023-03-01T21:29:03.256Z,13.65
2023-03-01T21:31:38.845Z,13.48
2023-03-01T21:34:06.954Z,12.93
2023-03-01T21:36:35.690Z,14.77
2023-03-01T21:39:07.266Z,15.48
2023-03-01T21:41:37.191Z,15.20
2023-03-01T21:44:06.951Z,13.90
2023-03-01T21:46:37.235Z,14.30
2023-03-01T21:49:15.708Z,13.05
2023-03-01T21:51:46.579Z,14.05
2023-03-01T21:54:16.182Z,13.98
2023-03-01T21:56:44.907Z,13.50
2023-03-01T21:59:20.829Z,13.23
2023-03-01T22:01:50.146Z,13.20
2023-03-01T22:04:21.865Z,12.40
2023-03-01T22:06:54.370Z,11.80
2023-03-01T22:09:27.532Z,11.70
2023-03-01T22:12:02.054Z,11.75
2023-03-01T22:14:31.131Z,11.27
2023-03-01T22:17:01.209Z,11.13
2023-03-01T22:19:33.358Z,11.38
2023-03-01T22:22:00.267Z,11.57
2023-03-01T22:24:30.205Z,10.93
2023-03-01T22:26:57.174Z,11.65
2023-03-01T22:29:30.640Z,11.73
2023-03-01T22:31:58.251Z,10.73
2023-03-01T22:34:28.060Z,12.00
2023-03-01T22:36:54.904Z,11.40
2023-03-01T22:39:26.686Z,11.45
2023-03-01T22:41:57.348Z,11.80
2023-03-01T22:44:25.159Z,12.13
2023-03-01T22:46:52.976Z,11.75
2023-03-01T22:49:24.458Z,11.80
2023-03-01T22:51:54.206Z,13.70
2023-03-01T22:54:26.005Z,11.77
2023-03-01T22:56:53.097Z,12.13
2023-03-01T22:59:23.981Z,12.10
2023-03-01T23:01:54.394Z,12.40
2023-03-01T23:04:23.125Z,11.32
2023-03-01T23:06:51.545Z,11.18
2023-03-01T23:09:26.463Z,11.90
2023-03-01T23:11:54.880Z,12.30
2023-03-01T23:14:25.122Z,11.70
2023-03-01T23:16:52.390Z,12.15
2023-03-01T23:19:19.381Z,12.15
2023-03-01T23:21:50.504Z,12.27
2023-03-01T23:24:20.251Z,11.45
2023-03-01T23:26:55.866Z,11.38
2023-03-01T23:29:27.808Z,11.95
2023-03-01T23:31:59.277Z,12.27
2023-03-01T23:34:27.092Z,11.48
2023-03-01T23:36:55.245Z,11.43
2023-03-01T23:39:22.386Z,12.82
2023-03-01T23:41:49.343Z,11.88
2023-03-01T23:44:23.843Z,12.95
2023-03-01T23:46:51.301Z,11.43
2023-03-01T23:49:22.319Z,12.65
2023-03-01T23:51:49.603Z,13.55
2023-03-01T23:54:20.776Z,12.65
2023-03-01T23:56:49.968Z,11.48
2023-03-01T23:59:23.036Z,12.57
